sensor_id;sensor_type;location;lat;lon;timestamp;P1;durP1;ratioP1;P2;durP2;ratioP2
34930;SDS011;21134;49.646;8.560;2023-08-01T00:00:25;1.00;;;0.93;;
34930;SDS011;21134;49.646;8.560;2023-08-01T00:02:52;1.08;;;0.93;;
34930;SDS011;21134;49.646;8.560;2023-08-01T00:05:18;2.42;;;1.25;;
34930;SDS011;21134;49.646;8.560;2023-08-01T00:07:45;3.22;;;1.33;;
34930;SDS011;21134;49.646;8.560;2023-08-01T00:10:13;2.15;;;0.98;;
34930;SDS011;21134;49.646;8.560;2023-08-01T00:12:41;2.20;;;1.33;;
34930;SDS011;21134;49.646;8.560;2023-08-01T00:15:08;5.35;;;1.10;;
34930;SDS011;21134;49.646;8.560;2023-08-01T00:17:35;2.08;;;1.08;;
34930;SDS011;21134;49.646;8.560;2023-08-01T00:20:01;8.10;;;1.80;;
34930;SDS011;21134;49.646;8.560;2023-08-01T00:22:29;7.63;;;2.20;;
34930;SDS011;21134;49.646;8.560;2023-08-01T00:24:55;2.33;;;1.20;;
34930;SDS011;21134;49.646;8.560;2023-08-01T00:27:23;3.10;;;1.30;;
34930;SDS011;21134;49.646;8.560;2023-08-01T00:29:50;3.28;;;1.30;;
34930;SDS011;21134;49.646;8.560;2023-08-01T00:32:16;6.53;;;1.40;;
34930;SDS011;21134;49.646;8.560;2023-08-01T00:34:43;3.47;;;1.17;;
34930;SDS011;21134;49.646;8.560;2023-08-01T00:37:10;1.95;;;1.15;;
34930;SDS011;21134;49.646;8.560;2023-08-01T00:39:37;3.85;;;1.98;;
34930;SDS011;21134;49.646;8.560;2023-08-01T00:42:04;7.30;;;2.25;;
34930;SDS011;21134;49.646;8.560;2023-08-01T00:44:32;2.25;;;0.95;;
34930;SDS011;21134;49.646;8.560;2023-08-01T00:46:58;2.22;;;1.40;;
34930;SDS011;21134;49.646;8.560;2023-08-01T00:49:25;2.28;;;1.77;;
34930;SDS011;21134;49.646;8.560;2023-08-01T00:51:51;2.83;;;1.52;;
34930;SDS011;21134;49.646;8.560;2023-08-01T00:54:18;3.67;;;1.55;;
34930;SDS011;21134;49.646;8.560;2023-08-01T00:56:45;1.75;;;1.55;;
34930;SDS011;21134;49.646;8.560;2023-08-01T00:59:11;9.65;;;1.17;;
34930;SDS011;21134;49.646;8.560;2023-08-01T01:01:40;1.73;;;1.23;;
34930;SDS011;21134;49.646;8.560;2023-08-01T01:04:06;5.40;;;1.58;;
34930;SDS011;21134;49.646;8.560;2023-08-01T01:06:34;1.45;;;1.15;;
34930;SDS011;21134;49.646;8.560;2023-08-01T01:09:13;3.03;;;1.92;;
34930;SDS011;21134;49.646;8.560;2023-08-01T01:11:40;9.82;;;1.42;;
34930;SDS011;21134;49.646;8.560;2023-08-01T01:14:07;3.05;;;1.75;;
34930;SDS011;21134;49.646;8.560;2023-08-01T01:16:33;1.05;;;0.80;;
34930;SDS011;21134;49.646;8.560;2023-08-01T01:19:01;2.08;;;1.38;;
34930;SDS011;21134;49.646;8.560;2023-08-01T01:21:34;1.63;;;1.38;;
34930;SDS011;21134;49.646;8.560;2023-08-01T01:24:01;2.00;;;1.40;;
34930;SDS011;21134;49.646;8.560;2023-08-01T01:26:29;1.92;;;1.48;;
34930;SDS011;21134;49.646;8.560;2023-08-01T01:28:57;4.03;;;1.95;;
34930;SDS011;21134;49.646;8.560;2023-08-01T01:31:25;3.45;;;1.88;;
34930;SDS011;21134;49.646;8.560;2023-08-01T01:33:52;3.80;;;1.58;;
34930;SDS011;21134;49.646;8.560;2023-08-01T01:36:19;12.23;;;1.80;;
34930;SDS011;21134;49.646;8.560;2023-08-01T01:38:46;9.75;;;1.55;;
34930;SDS011;21134;49.646;8.560;2023-08-01T01:41:13;3.97;;;1.20;;
34930;SDS011;21134;49.646;8.560;2023-08-01T01:43:39;2.78;;;1.33;;
34930;SDS011;21134;49.646;8.560;2023-08-01T01:46:06;2.22;;;1.42;;
34930;SDS011;21134;49.646;8.560;2023-08-01T01:48:33;2.83;;;1.70;;
34930;SDS011;21134;49.646;8.560;2023-08-01T01:50:59;7.82;;;0.85;;
34930;SDS011;21134;49.646;8.560;2023-08-01T01:53:25;1.50;;;1.20;;
34930;SDS011;21134;49.646;8.560;2023-08-01T01:55:53;2.28;;;1.13;;
34930;SDS011;21134;49.646;8.560;2023-08-01T01:58:20;14.88;;;2.63;;
34930;SDS011;21134;49.646;8.560;2023-08-01T02:00:48;3.63;;;2.28;;
34930;SDS011;21134;49.646;8.560;2023-08-01T02:03:15;2.00;;;1.30;;
34930;SDS011;21134;49.646;8.560;2023-08-01T02:05:41;9.93;;;1.98;;
34930;SDS011;21134;49.646;8.560;2023-08-01T02:08:08;1.10;;;0.85;;
34930;SDS011;21134;49.646;8.560;2023-08-01T02:10:34;5.55;;;1.05;;
34930;SDS011;21134;49.646;8.560;2023-08-01T02:13:02;1.80;;;1.00;;
34930;SDS011;21134;49.646;8.560;2023-08-01T02:15:28;2.42;;;1.30;;
34930;SDS011;21134;49.646;8.560;2023-08-01T02:17:56;2.83;;;1.75;;
34930;SDS011;21134;49.646;8.560;2023-08-01T02:20:23;1.70;;;1.05;;
34930;SDS011;21134;49.646;8.560;2023-08-01T02:22:49;4.38;;;1.30;;
34930;SDS011;21134;49.646;8.560;2023-08-01T02:25:16;2.28;;;1.42;;
34930;SDS011;21134;49.646;8.560;2023-08-01T02:27:43;2.03;;;1.40;;
34930;SDS011;21134;49.646;8.560;2023-08-01T02:30:11;5.47;;;2.45;;
34930;SDS011;21134;49.646;8.560;2023-08-01T02:32:37;1.33;;;0.98;;
34930;SDS011;21134;49.646;8.560;2023-08-01T02:35:04;2.67;;;1.80;;
34930;SDS011;21134;49.646;8.560;2023-08-01T02:37:31;3.15;;;1.55;;
34930;SDS011;21134;49.646;8.560;2023-08-01T02:39:58;3.00;;;2.25;;
34930;SDS011;21134;49.646;8.560;2023-08-01T02:42:24;3.90;;;2.20;;
34930;SDS011;21134;49.646;8.560;2023-08-01T02:44:50;2.28;;;1.10;;
34930;SDS011;21134;49.646;8.560;2023-08-01T02:47:18;2.20;;;1.45;;
34930;SDS011;21134;49.646;8.560;2023-08-01T02:49:45;4.25;;;1.27;;
34930;SDS011;21134;49.646;8.560;2023-08-01T02:52:11;9.55;;;1.38;;
34930;SDS011;21134;49.646;8.560;2023-08-01T02:54:38;4.22;;;2.00;;
34930;SDS011;21134;49.646;8.560;2023-08-01T02:57:04;3.47;;;1.60;;
34930;SDS011;21134;49.646;8.560;2023-08-01T02:59:31;2.97;;;1.45;;
34930;SDS011;21134;49.646;8.560;2023-08-01T03:01:59;1.10;;;0.98;;
34930;SDS011;21134;49.646;8.560;2023-08-01T03:04:27;1.10;;;0.88;;
34930;SDS011;21134;49.646;8.560;2023-08-01T03:06:53;1.50;;;1.25;;
34930;SDS011;21134;49.646;8.560;2023-08-01T03:09:19;0.70;;;0.70;;
34930;SDS011;21134;49.646;8.560;2023-08-01T03:11:46;2.28;;;1.25;;
34930;SDS011;21134;49.646;8.560;2023-08-01T03:14:12;3.63;;;1.65;;
34930;SDS011;21134;49.646;8.560;2023-08-01T03:16:39;1.25;;;1.10;;
34930;SDS011;21134;49.646;8.560;2023-08-01T03:19:05;2.90;;;1.20;;
34930;SDS011;21134;49.646;8.560;2023-08-01T03:21:34;1.55;;;0.93;;
34930;SDS011;21134;49.646;8.560;2023-08-01T03:24:02;4.88;;;1.48;;
34930;SDS011;21134;49.646;8.560;2023-08-01T03:26:31;4.15;;;1.65;;
34930;SDS011;21134;49.646;8.560;2023-08-01T03:28:57;1.05;;;0.90;;
34930;SDS011;21134;49.646;8.560;2023-08-01T03:31:24;2.65;;;0.73;;
34930;SDS011;21134;49.646;8.560;2023-08-01T03:33:50;2.53;;;1.45;;
34930;SDS011;21134;49.646;8.560;2023-08-01T03:36:17;2.45;;;1.05;;
34930;SDS011;21134;49.646;8.560;2023-08-01T03:38:45;6.68;;;1.48;;
34930;SDS011;21134;49.646;8.560;2023-08-01T03:41:11;1.73;;;1.40;;
34930;SDS011;21134;49.646;8.560;2023-08-01T03:43:38;3.50;;;1.43;;
34930;SDS011;21134;49.646;8.560;2023-08-01T03:46:05;2.17;;;1.38;;
34930;SDS011;21134;49.646;8.560;2023-08-01T03:48:32;2.03;;;1.15;;
34930;SDS011;21134;49.646;8.560;2023-08-01T03:50:58;5.40;;;1.65;;
34930;SDS011;21134;49.646;8.560;2023-08-01T03:53:25;4.10;;;1.98;;
34930;SDS011;21134;49.646;8.560;2023-08-01T03:55:53;1.73;;;1.63;;
34930;SDS011;21134;49.646;8.560;2023-08-01T03:58:19;4.70;;;1.27;;
34930;SDS011;21134;49.646;8.560;2023-08-01T04:00:46;6.60;;;1.85;;
34930;SDS011;21134;49.646;8.560;2023-08-01T04:03:12;2.65;;;1.27;;
34930;SDS011;21134;49.646;8.560;2023-08-01T04:05:39;1.42;;;1.30;;
34930;SDS011;21134;49.646;8.560;2023-08-01T04:08:06;3.08;;;1.17;;
34930;SDS011;21134;49.646;8.560;2023-08-01T04:10:32;1.40;;;1.00;;
34930;SDS011;21134;49.646;8.560;2023-08-01T04:13:00;4.15;;;1.75;;
34930;SDS011;21134;49.646;8.560;2023-08-01T04:15:26;2.80;;;1.48;;
34930;SDS011;21134;49.646;8.560;2023-08-01T04:17:53;2.00;;;1.20;;
34930;SDS011;21134;49.646;8.560;2023-08-01T04:20:19;0.77;;;0.77;;
34930;SDS011;21134;49.646;8.560;2023-08-01T04:22:46;0.80;;;0.53;;
34930;SDS011;21134;49.646;8.560;2023-08-01T04:25:12;5.63;;;1.52;;
34930;SDS011;21134;49.646;8.560;2023-08-01T04:27:39;4.10;;;1.83;;
34930;SDS011;21134;49.646;8.560;2023-08-01T04:30:07;4.28;;;1.40;;
34930;SDS011;21134;49.646;8.560;2023-08-01T04:32:34;6.95;;;1.35;;
34930;SDS011;21134;49.646;8.560;2023-08-01T04:35:00;1.40;;;1.30;;
34930;SDS011;21134;49.646;8.560;2023-08-01T04:37:27;4.15;;;1.52;;
34930;SDS011;21134;49.646;8.560;2023-08-01T04:39:54;4.40;;;2.00;;
34930;SDS011;21134;49.646;8.560;2023-08-01T04:42:20;2.88;;;1.75;;
34930;SDS011;21134;49.646;8.560;2023-08-01T04:44:47;2.72;;;1.20;;
34930;SDS011;21134;49.646;8.560;2023-08-01T04:47:14;3.20;;;2.00;;
34930;SDS011;21134;49.646;8.560;2023-08-01T04:49:41;2.40;;;1.10;;
34930;SDS011;21134;49.646;8.560;2023-08-01T04:52:07;2.17;;;1.53;;
34930;SDS011;21134;49.646;8.560;2023-08-01T04:54:34;14.90;;;2.95;;
34930;SDS011;21134;49.646;8.560;2023-08-01T04:57:00;1.73;;;1.00;;
34930;SDS011;21134;49.646;8.560;2023-08-01T04:59:27;1.38;;;1.25;;
34930;SDS011;21134;49.646;8.560;2023-08-01T05:01:53;3.97;;;2.00;;
34930;SDS011;21134;49.646;8.560;2023-08-01T05:04:21;1.48;;;1.20;;
34930;SDS011;21134;49.646;8.560;2023-08-01T05:06:48;1.35;;;1.02;;
34930;SDS011;21134;49.646;8.560;2023-08-01T05:09:14;2.35;;;1.67;;
34930;SDS011;21134;49.646;8.560;2023-08-01T05:11:41;4.30;;;1.20;;
34930;SDS011;21134;49.646;8.560;2023-08-01T05:14:07;6.03;;;1.77;;
34930;SDS011;21134;49.646;8.560;2023-08-01T05:16:34;2.40;;;1.73;;
34930;SDS011;21134;49.646;8.560;2023-08-01T05:19:00;6.00;;;2.50;;
34930;SDS011;21134;49.646;8.560;2023-08-01T05:21:28;3.87;;;2.00;;
34930;SDS011;21134;49.646;8.560;2023-08-01T05:23:54;3.73;;;1.63;;
34930;SDS011;21134;49.646;8.560;2023-08-01T05:26:21;2.30;;;1.33;;
34930;SDS011;21134;49.646;8.560;2023-08-01T05:28:47;5.18;;;2.25;;
34930;SDS011;21134;49.646;8.560;2023-08-01T05:31:14;6.73;;;1.80;;
34930;SDS011;21134;49.646;8.560;2023-08-01T05:33:40;3.22;;;1.33;;
34930;SDS011;21134;49.646;8.560;2023-08-01T05:36:07;3.90;;;1.87;;
34930;SDS011;21134;49.646;8.560;2023-08-01T05:38:35;7.40;;;2.07;;
34930;SDS011;21134;49.646;8.560;2023-08-01T05:41:01;2.20;;;1.48;;
34930;SDS011;21134;49.646;8.560;2023-08-01T05:43:28;2.70;;;1.17;;
34930;SDS011;21134;49.646;8.560;2023-08-01T05:45:54;3.13;;;1.37;;
34930;SDS011;21134;49.646;8.560;2023-08-01T05:48:21;2.73;;;1.20;;
34930;SDS011;21134;49.646;8.560;2023-08-01T05:50:47;5.93;;;1.83;;
34930;SDS011;21134;49.646;8.560;2023-08-01T05:53:14;3.93;;;1.90;;
34930;SDS011;21134;49.646;8.560;2023-08-01T05:55:41;5.20;;;1.43;;
34930;SDS011;21134;49.646;8.560;2023-08-01T05:58:08;2.13;;;0.73;;
34930;SDS011;21134;49.646;8.560;2023-08-01T06:00:34;2.53;;;1.17;;
34930;SDS011;21134;49.646;8.560;2023-08-01T06:03:01;1.40;;;1.30;;
34930;SDS011;21134;49.646;8.560;2023-08-01T06:05:27;16.73;;;2.07;;
34930;SDS011;21134;49.646;8.560;2023-08-01T06:07:54;1.97;;;1.03;;
34930;SDS011;21134;49.646;8.560;2023-08-01T06:10:21;2.25;;;1.23;;
34930;SDS011;21134;49.646;8.560;2023-08-01T06:12:49;4.03;;;1.98;;
34930;SDS011;21134;49.646;8.560;2023-08-01T06:15:15;3.20;;;1.58;;
34930;SDS011;21134;49.646;8.560;2023-08-01T06:17:42;3.40;;;1.48;;
34930;SDS011;21134;49.646;8.560;2023-08-01T06:20:09;4.78;;;2.00;;
34930;SDS011;21134;49.646;8.560;2023-08-01T06:22:36;2.00;;;1.50;;
34930;SDS011;21134;49.646;8.560;2023-08-01T06:25:04;2.97;;;1.30;;
34930;SDS011;21134;49.646;8.560;2023-08-01T06:27:31;1.90;;;1.50;;
34930;SDS011;21134;49.646;8.560;2023-08-01T06:29:59;3.90;;;2.08;;
34930;SDS011;21134;49.646;8.560;2023-08-01T06:32:25;3.53;;;1.48;;
34930;SDS011;21134;49.646;8.560;2023-08-01T06:34:52;2.03;;;1.08;;
34930;SDS011;21134;49.646;8.560;2023-08-01T06:37:18;3.40;;;1.80;;
34930;SDS011;21134;49.646;8.560;2023-08-01T06:39:45;2.57;;;1.30;;
34930;SDS011;21134;49.646;8.560;2023-08-01T06:42:11;5.15;;;1.25;;
34930;SDS011;21134;49.646;8.560;2023-08-01T06:44:38;1.55;;;1.42;;
34930;SDS011;21134;49.646;8.560;2023-08-01T06:47:06;2.55;;;1.83;;
34930;SDS011;21134;49.646;8.560;2023-08-01T06:49:32;3.70;;;1.77;;
34930;SDS011;21134;49.646;8.560;2023-08-01T06:51:59;4.05;;;1.30;;
34930;SDS011;21134;49.646;8.560;2023-08-01T06:54:25;3.85;;;1.65;;
34930;SDS011;21134;49.646;8.560;2023-08-01T06:56:52;1.27;;;0.82;;
34930;SDS011;21134;49.646;8.560;2023-08-01T06:59:18;1.77;;;1.35;;
34930;SDS011;21134;49.646;8.560;2023-08-01T07:01:45;2.40;;;1.42;;
34930;SDS011;21134;49.646;8.560;2023-08-01T07:04:13;3.05;;;1.17;;
34930;SDS011;21134;49.646;8.560;2023-08-01T07:06:39;2.97;;;1.48;;
34930;SDS011;21134;49.646;8.560;2023-08-01T07:09:06;2.90;;;2.15;;
34930;SDS011;21134;49.646;8.560;2023-08-01T07:11:33;1.80;;;1.33;;
34930;SDS011;21134;49.646;8.560;2023-08-01T07:13:59;4.68;;;1.65;;
34930;SDS011;21134;49.646;8.560;2023-08-01T07:16:26;2.65;;;1.27;;
34930;SDS011;21134;49.646;8.560;2023-08-01T07:18:52;2.53;;;1.52;;
34930;SDS011;21134;49.646;8.560;2023-08-01T07:21:20;1.65;;;1.10;;
34930;SDS011;21134;49.646;8.560;2023-08-01T07:23:46;4.70;;;1.02;;
34930;SDS011;21134;49.646;8.560;2023-08-01T07:26:13;2.40;;;1.55;;
34930;SDS011;21134;49.646;8.560;2023-08-01T07:28:40;4.22;;;1.77;;
34930;SDS011;21134;49.646;8.560;2023-08-01T07:31:07;1.20;;;1.10;;
34930;SDS011;21134;49.646;8.560;2023-08-01T07:33:33;2.45;;;1.60;;
34930;SDS011;21134;49.646;8.560;2023-08-01T07:36:01;2.28;;;0.73;;
34930;SDS011;21134;49.646;8.560;2023-08-01T07:38:29;1.23;;;1.00;;
34930;SDS011;21134;49.646;8.560;2023-08-01T07:40:57;1.33;;;0.88;;
34930;SDS011;21134;49.646;8.560;2023-08-01T07:43:25;1.45;;;0.77;;
34930;SDS011;21134;49.646;8.560;2023-08-01T07:45:54;3.35;;;1.02;;
34930;SDS011;21134;49.646;8.560;2023-08-01T07:48:22;2.75;;;0.85;;
34930;SDS011;21134;49.646;8.560;2023-08-01T07:50:48;1.30;;;0.65;;
34930;SDS011;21134;49.646;8.560;2023-08-01T07:53:15;1.65;;;1.25;;
34930;SDS011;21134;49.646;8.560;2023-08-01T07:55:43;2.10;;;1.15;;
34930;SDS011;21134;49.646;8.560;2023-08-01T07:58:09;0.60;;;0.60;;
34930;SDS011;21134;49.646;8.560;2023-08-01T08:00:36;3.65;;;1.30;;
34930;SDS011;21134;49.646;8.560;2023-08-01T08:03:02;1.23;;;0.63;;
34930;SDS011;21134;49.646;8.560;2023-08-01T08:05:30;2.30;;;1.10;;
34930;SDS011;21134;49.646;8.560;2023-08-01T08:07:57;1.67;;;1.05;;
34930;SDS011;21134;49.646;8.560;2023-08-01T08:10:23;0.75;;;0.50;;
34930;SDS011;21134;49.646;8.560;2023-08-01T08:12:51;0.65;;;0.35;;
34930;SDS011;21134;49.646;8.560;2023-08-01T08:15:18;0.82;;;0.40;;
34930;SDS011;21134;49.646;8.560;2023-08-01T08:17:45;0.75;;;0.60;;
34930;SDS011;21134;49.646;8.560;2023-08-01T08:20:11;0.50;;;0.50;;
34930;SDS011;21134;49.646;8.560;2023-08-01T08:22:38;1.83;;;1.13;;
34930;SDS011;21134;49.646;8.560;2023-08-01T08:25:04;0.65;;;0.32;;
34930;SDS011;21134;49.646;8.560;2023-08-01T08:27:31;3.40;;;0.77;;
34930;SDS011;21134;49.646;8.560;2023-08-01T08:29:59;0.70;;;0.40;;
34930;SDS011;21134;49.646;8.560;2023-08-01T08:32:26;0.40;;;0.40;;
34930;SDS011;21134;49.646;8.560;2023-08-01T08:34:52;0.40;;;0.40;;
34930;SDS011;21134;49.646;8.560;2023-08-01T08:37:19;0.43;;;0.40;;
34930;SDS011;21134;49.646;8.560;2023-08-01T08:39:46;0.20;;;0.08;;
34930;SDS011;21134;49.646;8.560;2023-08-01T08:42:13;0.20;;;0.20;;
34930;SDS011;21134;49.646;8.560;2023-08-01T08:44:42;0.40;;;0.20;;
34930;SDS011;21134;49.646;8.560;2023-08-01T08:47:11;0.35;;;0.32;;
34930;SDS011;21134;49.646;8.560;2023-08-01T08:49:38;0.00;;;0.00;;
34930;SDS011;21134;49.646;8.560;2023-08-01T08:52:06;0.20;;;0.20;;
34930;SDS011;21134;49.646;8.560;2023-08-01T08:54:33;0.03;;;0.03;;
34930;SDS011;21134;49.646;8.560;2023-08-01T08:57:02;2.03;;;0.17;;
34930;SDS011;21134;49.646;8.560;2023-08-01T08:59:31;0.38;;;0.20;;
34930;SDS011;21134;49.646;8.560;2023-08-01T09:01:59;0.30;;;0.30;;
34930;SDS011;21134;49.646;8.560;2023-08-01T09:04:27;0.20;;;0.20;;
34930;SDS011;21134;49.646;8.560;2023-08-01T09:06:55;3.10;;;0.57;;
34930;SDS011;21134;49.646;8.560;2023-08-01T09:09:27;1.02;;;0.68;;
34930;SDS011;21134;49.646;8.560;2023-08-01T09:11:54;0.47;;;0.28;;
34930;SDS011;21134;49.646;8.560;2023-08-01T09:14:21;0.68;;;0.45;;
34930;SDS011;21134;49.646;8.560;2023-08-01T09:16:48;1.30;;;0.25;;
34930;SDS011;21134;49.646;8.560;2023-08-01T09:19:16;0.47;;;0.20;;
34930;SDS011;21134;49.646;8.560;2023-08-01T09:21:45;0.20;;;0.20;;
34930;SDS011;21134;49.646;8.560;2023-08-01T09:24:12;0.10;;;0.10;;
34930;SDS011;21134;49.646;8.560;2023-08-01T09:26:40;1.02;;;0.20;;
34930;SDS011;21134;49.646;8.560;2023-08-01T09:29:07;0.30;;;0.20;;
34930;SDS011;21134;49.646;8.560;2023-08-01T09:31:34;0.32;;;0.30;;
34930;SDS011;21134;49.646;8.560;2023-08-01T09:34:04;0.22;;;0.17;;
34930;SDS011;21134;49.646;8.560;2023-08-01T09:36:31;0.15;;;0.10;;
34930;SDS011;21134;49.646;8.560;2023-08-01T09:39:00;0.28;;;0.20;;
34930;SDS011;21134;49.646;8.560;2023-08-01T09:41:28;0.50;;;0.20;;
34930;SDS011;21134;49.646;8.560;2023-08-01T09:43:55;0.10;;;0.10;;
34930;SDS011;21134;49.646;8.560;2023-08-01T09:46:22;0.73;;;0.35;;
34930;SDS011;21134;49.646;8.560;2023-08-01T09:48:48;0.70;;;0.22;;
34930;SDS011;21134;49.646;8.560;2023-08-01T09:51:15;0.30;;;0.28;;
34930;SDS011;21134;49.646;8.560;2023-08-01T09:53:47;0.20;;;0.20;;
34930;SDS011;21134;49.646;8.560;2023-08-01T09:56:16;0.10;;;0.10;;
34930;SDS011;21134;49.646;8.560;2023-08-01T09:58:45;0.47;;;0.30;;
34930;SDS011;21134;49.646;8.560;2023-08-01T10:01:13;0.20;;;0.20;;
34930;SDS011;21134;49.646;8.560;2023-08-01T10:03:41;3.65;;;0.20;;
34930;SDS011;21134;49.646;8.560;2023-08-01T10:06:12;0.13;;;0.13;;
34930;SDS011;21134;49.646;8.560;2023-08-01T10:08:43;1.25;;;0.50;;
34930;SDS011;21134;49.646;8.560;2023-08-01T10:11:10;0.10;;;0.10;;
34930;SDS011;21134;49.646;8.560;2023-08-01T10:13:39;0.30;;;0.30;;
34930;SDS011;21134;49.646;8.560;2023-08-01T10:16:07;0.38;;;0.30;;
34930;SDS011;21134;49.646;8.560;2023-08-01T10:18:34;0.13;;;0.13;;
34930;SDS011;21134;49.646;8.560;2023-08-01T10:21:03;0.22;;;0.20;;
34930;SDS011;21134;49.646;8.560;2023-08-01T10:23:31;0.50;;;0.50;;
34930;SDS011;21134;49.646;8.560;2023-08-01T10:25:59;1.60;;;0.70;;
34930;SDS011;21134;49.646;8.560;2023-08-01T10:28:32;0.82;;;0.45;;
34930;SDS011;21134;49.646;8.560;2023-08-01T10:31:10;0.50;;;0.20;;
34930;SDS011;21134;49.646;8.560;2023-08-01T10:33:37;0.20;;;0.10;;
34930;SDS011;21134;49.646;8.560;2023-08-01T10:36:14;0.50;;;0.30;;
34930;SDS011;21134;49.646;8.560;2023-08-01T10:38:46;0.55;;;0.30;;
34930;SDS011;21134;49.646;8.560;2023-08-01T10:41:21;0.80;;;0.80;;
34930;SDS011;21134;49.646;8.560;2023-08-01T10:43:52;1.17;;;0.50;;
34930;SDS011;21134;49.646;8.560;2023-08-01T10:46:45;6.40;;;0.20;;
34930;SDS011;21134;49.646;8.560;2023-08-01T10:49:13;1.27;;;0.32;;
34930;SDS011;21134;49.646;8.560;2023-08-01T10:51:39;0.50;;;0.30;;
34930;SDS011;21134;49.646;8.560;2023-08-01T10:54:06;2.30;;;0.38;;
34930;SDS011;21134;49.646;8.560;2023-08-01T10:56:33;0.45;;;0.30;;
34930;SDS011;21134;49.646;8.560;2023-08-01T10:59:01;0.40;;;0.30;;
34930;SDS011;21134;49.646;8.560;2023-08-01T11:01:32;0.73;;;0.57;;
34930;SDS011;21134;49.646;8.560;2023-08-01T11:04:14;0.47;;;0.40;;
34930;SDS011;21134;49.646;8.560;2023-08-01T11:06:44;0.43;;;0.43;;
34930;SDS011;21134;49.646;8.560;2023-08-01T11:09:15;1.35;;;0.60;;
34930;SDS011;21134;49.646;8.560;2023-08-01T11:11:43;1.90;;;0.45;;
34930;SDS011;21134;49.646;8.560;2023-08-01T11:14:11;1.42;;;0.30;;
34930;SDS011;21134;49.646;8.560;2023-08-01T11:16:38;0.50;;;0.20;;
34930;SDS011;21134;49.646;8.560;2023-08-01T11:19:05;0.73;;;0.40;;
34930;SDS011;21134;49.646;8.560;2023-08-01T11:21:33;0.75;;;0.45;;
34930;SDS011;21134;49.646;8.560;2023-08-01T11:24:05;0.28;;;0.28;;
34930;SDS011;21134;49.646;8.560;2023-08-01T11:26:32;0.65;;;0.55;;
34930;SDS011;21134;49.646;8.560;2023-08-01T11:29:01;0.95;;;0.30;;
34930;SDS011;21134;49.646;8.560;2023-08-01T11:31:28;0.20;;;0.20;;
34930;SDS011;21134;49.646;8.560;2023-08-01T11:33:56;0.32;;;0.20;;
34930;SDS011;21134;49.646;8.560;2023-08-01T11:36:24;0.82;;;0.38;;
34930;SDS011;21134;49.646;8.560;2023-08-01T11:38:53;0.17;;;0.17;;
34930;SDS011;21134;49.646;8.560;2023-08-01T11:41:22;0.40;;;0.40;;
34930;SDS011;21134;49.646;8.560;2023-08-01T11:43:49;0.10;;;0.10;;
34930;SDS011;21134;49.646;8.560;2023-08-01T11:46:16;0.55;;;0.40;;
34930;SDS011;21134;49.646;8.560;2023-08-01T11:48:44;0.15;;;0.15;;
34930;SDS011;21134;49.646;8.560;2023-08-01T11:51:11;0.35;;;0.20;;
34930;SDS011;21134;49.646;8.560;2023-08-01T11:53:38;1.00;;;0.38;;
34930;SDS011;21134;49.646;8.560;2023-08-01T11:56:06;0.20;;;0.20;;
34930;SDS011;21134;49.646;8.560;2023-08-01T11:58:34;1.20;;;0.38;;
34930;SDS011;21134;49.646;8.560;2023-08-01T12:01:02;0.25;;;0.22;;
34930;SDS011;21134;49.646;8.560;2023-08-01T12:03:29;1.75;;;0.93;;
34930;SDS011;21134;49.646;8.560;2023-08-01T12:06:02;0.40;;;0.28;;
34930;SDS011;21134;49.646;8.560;2023-08-01T12:08:31;0.40;;;0.40;;
34930;SDS011;21134;49.646;8.560;2023-08-01T12:10:58;0.95;;;0.32;;
34930;SDS011;21134;49.646;8.560;2023-08-01T12:13:26;0.47;;;0.43;;
34930;SDS011;21134;49.646;8.560;2023-08-01T12:15:54;0.70;;;0.32;;
34930;SDS011;21134;49.646;8.560;2023-08-01T12:18:22;0.77;;;0.40;;
34930;SDS011;21134;49.646;8.560;2023-08-01T12:20:49;0.68;;;0.47;;
34930;SDS011;21134;49.646;8.560;2023-08-01T12:23:16;0.75;;;0.35;;
34930;SDS011;21134;49.646;8.560;2023-08-01T12:25:42;7.43;;;0.40;;
34930;SDS011;21134;49.646;8.560;2023-08-01T12:28:09;2.17;;;0.60;;
34930;SDS011;21134;49.646;8.560;2023-08-01T12:30:38;0.63;;;0.43;;
34930;SDS011;21134;49.646;8.560;2023-08-01T12:33:05;0.45;;;0.45;;
34930;SDS011;21134;49.646;8.560;2023-08-01T12:35:32;0.75;;;0.60;;
34930;SDS011;21134;49.646;8.560;2023-08-01T12:37:58;0.30;;;0.30;;
34930;SDS011;21134;49.646;8.560;2023-08-01T12:40:24;0.20;;;0.20;;
34930;SDS011;21134;49.646;8.560;2023-08-01T12:42:51;0.35;;;0.35;;
34930;SDS011;21134;49.646;8.560;2023-08-01T12:45:18;0.20;;;0.20;;
34930;SDS011;21134;49.646;8.560;2023-08-01T12:47:46;0.52;;;0.22;;
34930;SDS011;21134;49.646;8.560;2023-08-01T12:50:12;0.57;;;0.30;;
34930;SDS011;21134;49.646;8.560;2023-08-01T12:52:39;1.90;;;0.70;;
34930;SDS011;21134;49.646;8.560;2023-08-01T12:55:05;0.40;;;0.40;;
34930;SDS011;21134;49.646;8.560;2023-08-01T12:57:32;0.50;;;0.50;;
34930;SDS011;21134;49.646;8.560;2023-08-01T12:59:59;0.57;;;0.22;;
34930;SDS011;21134;49.646;8.560;2023-08-01T13:02:26;1.23;;;0.57;;
34930;SDS011;21134;49.646;8.560;2023-08-01T13:04:54;1.13;;;0.40;;
34930;SDS011;21134;49.646;8.560;2023-08-01T13:07:20;0.52;;;0.40;;
34930;SDS011;21134;49.646;8.560;2023-08-01T13:09:47;0.63;;;0.30;;
34930;SDS011;21134;49.646;8.560;2023-08-01T13:12:14;0.68;;;0.68;;
34930;SDS011;21134;49.646;8.560;2023-08-01T13:14:41;0.25;;;0.20;;
34930;SDS011;21134;49.646;8.560;2023-08-01T13:17:07;4.05;;;0.50;;
34930;SDS011;21134;49.646;8.560;2023-08-01T13:19:34;0.35;;;0.35;;
34930;SDS011;21134;49.646;8.560;2023-08-01T13:22:01;1.58;;;0.80;;
34930;SDS011;21134;49.646;8.560;2023-08-01T13:24:29;1.42;;;0.77;;
34930;SDS011;21134;49.646;8.560;2023-08-01T13:26:55;1.17;;;0.35;;
34930;SDS011;21134;49.646;8.560;2023-08-01T13:29:21;1.05;;;0.73;;
34930;SDS011;21134;49.646;8.560;2023-08-01T13:31:48;1.00;;;0.77;;
34930;SDS011;21134;49.646;8.560;2023-08-01T13:34:14;0.30;;;0.30;;
34930;SDS011;21134;49.646;8.560;2023-08-01T13:36:42;4.05;;;1.17;;
34930;SDS011;21134;49.646;8.560;2023-08-01T13:39:10;1.55;;;0.50;;
34930;SDS011;21134;49.646;8.560;2023-08-01T13:41:37;2.28;;;0.43;;
34930;SDS011;21134;49.646;8.560;2023-08-01T13:44:03;0.98;;;0.82;;
34930;SDS011;21134;49.646;8.560;2023-08-01T13:46:30;3.85;;;0.73;;
34930;SDS011;21134;49.646;8.560;2023-08-01T13:48:57;1.25;;;0.65;;
34930;SDS011;21134;49.646;8.560;2023-08-01T13:51:24;2.22;;;0.93;;
34930;SDS011;21134;49.646;8.560;2023-08-01T13:53:50;1.75;;;1.10;;
34930;SDS011;21134;49.646;8.560;2023-08-01T13:56:18;9.25;;;0.75;;
34930;SDS011;21134;49.646;8.560;2023-08-01T13:58:46;1.77;;;0.35;;
34930;SDS011;21134;49.646;8.560;2023-08-01T14:01:13;0.68;;;0.65;;
34930;SDS011;21134;49.646;8.560;2023-08-01T14:03:39;0.95;;;0.70;;
34930;SDS011;21134;49.646;8.560;2023-08-01T14:06:06;0.63;;;0.50;;
34930;SDS011;21134;49.646;8.560;2023-08-01T14:08:33;1.10;;;1.00;;
34930;SDS011;21134;49.646;8.560;2023-08-01T14:11:00;2.58;;;0.82;;
34930;SDS011;21134;49.646;8.560;2023-08-01T14:13:29;2.72;;;0.82;;
34930;SDS011;21134;49.646;8.560;2023-08-01T14:15:55;0.60;;;0.50;;
34930;SDS011;21134;49.646;8.560;2023-08-01T14:18:22;0.73;;;0.40;;
34930;SDS011;21134;49.646;8.560;2023-08-01T14:20:48;2.47;;;0.75;;
34930;SDS011;21134;49.646;8.560;2023-08-01T14:23:15;2.10;;;0.77;;
34930;SDS011;21134;49.646;8.560;2023-08-01T14:25:42;0.63;;;0.63;;
34930;SDS011;21134;49.646;8.560;2023-08-01T14:28:08;1.10;;;0.70;;
34930;SDS011;21134;49.646;8.560;2023-08-01T14:30:37;1.08;;;0.75;;
34930;SDS011;21134;49.646;8.560;2023-08-01T14:33:04;1.00;;;0.65;;
34930;SDS011;21134;49.646;8.560;2023-08-01T14:35:33;0.45;;;0.45;;
34930;SDS011;21134;49.646;8.560;2023-08-01T14:38:00;0.70;;;0.57;;
34930;SDS011;21134;49.646;8.560;2023-08-01T14:40:27;0.40;;;0.40;;
34930;SDS011;21134;49.646;8.560;2023-08-01T14:42:54;0.30;;;0.30;;
34930;SDS011;21134;49.646;8.560;2023-08-01T14:45:21;0.17;;;0.17;;
34930;SDS011;21134;49.646;8.560;2023-08-01T14:47:49;0.43;;;0.43;;